sensor_id;sensor_type;location;lat;lon;timestamp;pressure;altitude;pressure_sealevel;temperature;humidity
69955;BME280;57279;55.912;37.490;2023-02-02T04:33:00;98278.88;;;-0.84;70.06
69955;BME280;57279;55.912;37.490;2023-02-02T04:35:26;98270.91;;;-0.84;70.18
69955;BME280;57279;55.912;37.490;2023-02-02T04:37:54;98282.31;;;-0.77;70.53
69955;BME280;57279;55.912;37.490;2023-02-02T04:40:19;98284.69;;;-0.69;70.70
69955;BME280;57279;55.912;37.490;2023-02-02T04:42:45;98284.88;;;-0.64;70.09
69955;BME280;57279;55.912;37.490;2023-02-02T04:45:10;98283.03;;;-0.63;69.83
69955;BME280;57279;55.912;37.490;2023-02-02T04:47:36;98276.72;;;-0.62;70.18
69955;BME280;57279;55.912;37.490;2023-02-02T04:50:02;98287.13;;;-0.67;70.45
69955;BME280;57279;55.912;37.490;2023-02-02T04:52:28;98289.38;;;-0.64;69.99
69955;BME280;57279;55.912;37.490;2023-02-02T04:54:54;98288.09;;;-0.55;70.17
69955;BME280;57279;55.912;37.490;2023-02-02T04:57:19;98295.38;;;-0.44;69.82
69955;BME280;57279;55.912;37.490;2023-02-02T04:59:45;98290.06;;;-0.44;69.49
69955;BME280;57279;55.912;37.490;2023-02-02T05:02:11;98292.72;;;-0.44;69.40
69955;BME280;57279;55.912;37.490;2023-02-02T05:04:36;98292.25;;;-0.41;69.35
69955;BME280;57279;55.912;37.490;2023-02-02T05:07:02;98295.38;;;-0.44;69.23
69955;BME280;57279;55.912;37.490;2023-02-02T05:09:27;98293.69;;;-0.38;69.44
69955;BME280;57279;55.912;37.490;2023-02-02T05:11:53;98293.94;;;-0.21;69.11
69955;BME280;57279;55.912;37.490;2023-02-02T05:14:19;98296.00;;;-0.23;68.22
69955;BME280;57279;55.912;37.490;2023-02-02T05:16:44;98294.63;;;-0.26;68.02
69955;BME280;57279;55.912;37.490;2023-02-02T05:19:11;98299.91;;;-0.26;68.41
69955;BME280;57279;55.912;37.490;2023-02-02T05:21:36;98293.63;;;-0.31;68.37
69955;BME280;57279;55.912;37.490;2023-02-02T05:24:02;98300.41;;;-0.35;68.45
69955;BME280;57279;55.912;37.490;2023-02-02T05:26:28;98291.41;;;-0.34;68.57
69955;BME280;57279;55.912;37.490;2023-02-02T05:28:55;98294.88;;;-0.34;68.35
69955;BME280;57279;55.912;37.490;2023-02-02T05:31:21;98295.09;;;-0.35;68.49
69955;BME280;57279;55.912;37.490;2023-02-02T05:33:47;98292.03;;;-0.32;68.73
69955;BME280;57279;55.912;37.490;2023-02-02T05:36:12;98290.59;;;-0.35;68.59
69955;BME280;57279;55.912;37.490;2023-02-02T05:38:38;98288.38;;;-0.38;68.78
69955;BME280;57279;55.912;37.490;2023-02-02T05:41:04;98286.72;;;-0.32;68.64
69955;BME280;57279;55.912;37.490;2023-02-02T05:43:31;98297.09;;;-0.31;68.95
69955;BME280;57279;55.912;37.490;2023-02-02T05:45:58;98303.06;;;-0.35;69.17
69955;BME280;57279;55.912;37.490;2023-02-02T05:48:24;98301.19;;;-0.35;69.29
69955;BME280;57279;55.912;37.490;2023-02-02T05:51:05;98309.16;;;-0.35;69.60
69955;BME280;57279;55.912;37.490;2023-02-02T05:53:34;98297.78;;;-0.42;69.69
69955;BME280;57279;55.912;37.490;2023-02-02T05:56:00;98303.69;;;-0.40;69.49
69955;BME280;57279;55.912;37.490;2023-02-02T05:58:25;98307.38;;;-0.41;69.88
69955;BME280;57279;55.912;37.490;2023-02-02T06:00:52;98310.81;;;-0.34;69.61
69955;BME280;57279;55.912;37.490;2023-02-02T06:03:18;98313.25;;;-0.32;69.91
69955;BME280;57279;55.912;37.490;2023-02-02T06:05:44;98321.94;;;-0.25;69.83
69955;BME280;57279;55.912;37.490;2023-02-02T06:08:10;98314.19;;;-0.27;69.50
69955;BME280;57279;55.912;37.490;2023-02-02T06:10:40;98319.56;;;-0.33;69.73
69955;BME280;57279;55.912;37.490;2023-02-02T06:13:06;98324.28;;;-0.35;69.95
69955;BME280;57279;55.912;37.490;2023-02-02T06:15:32;98316.53;;;-0.37;70.03
69955;BME280;57279;55.912;37.490;2023-02-02T06:17:59;98321.22;;;-0.39;70.14
69955;BME280;57279;55.912;37.490;2023-02-02T06:20:25;98338.41;;;-0.42;70.29
69955;BME280;57279;55.912;37.490;2023-02-02T06:22:51;98323.94;;;-0.46;69.97
69955;BME280;57279;55.912;37.490;2023-02-02T06:25:17;98325.72;;;-0.40;70.26
69955;BME280;57279;55.912;37.490;2023-02-02T06:27:42;98327.34;;;-0.38;70.32
69955;BME280;57279;55.912;37.490;2023-02-02T06:30:12;98320.03;;;-0.43;70.11
69955;BME280;57279;55.912;37.490;2023-02-02T06:32:38;98324.47;;;-0.37;70.39
69955;BME280;57279;55.912;37.490;2023-02-02T06:35:04;98325.66;;;-0.33;70.17
69955;BME280;57279;55.912;37.490;2023-02-02T06:37:30;98329.38;;;-0.34;70.16
69955;BME280;57279;55.912;37.490;2023-02-02T06:39:56;98326.28;;;-0.31;70.00
69955;BME280;57279;55.912;37.490;2023-02-02T06:42:21;98324.00;;;-0.27;69.38
69955;BME280;57279;55.912;37.490;2023-02-02T06:44:47;98319.56;;;-0.33;69.66
69955;BME280;57279;55.912;37.490;2023-02-02T06:47:13;98323.28;;;-0.41;69.87
69955;BME280;57279;55.912;37.490;2023-02-02T06:49:38;98328.00;;;-0.43;70.09
69955;BME280;57279;55.912;37.490;2023-02-02T06:52:06;98328.31;;;-0.33;70.11
69955;BME280;57279;55.912;37.490;2023-02-02T06:54:31;98333.81;;;-0.28;69.43
69955;BME280;57279;55.912;37.490;2023-02-02T06:56:57;98334.78;;;-0.22;69.16
69955;BME280;57279;55.912;37.490;2023-02-02T06:59:23;98333.59;;;-0.26;69.32
69955;BME280;57279;55.912;37.490;2023-02-02T07:01:49;98332.63;;;-0.32;69.36
69955;BME280;57279;55.912;37.490;2023-02-02T07:04:17;98338.69;;;-0.25;69.53
69955;BME280;57279;55.912;37.490;2023-02-02T07:06:43;98337.81;;;-0.18;69.52
69955;BME280;57279;55.912;37.490;2023-02-02T07:09:09;98332.06;;;-0.15;69.24
69955;BME280;57279;55.912;37.490;2023-02-02T07:11:34;98339.44;;;-0.17;68.96
69955;BME280;57279;55.912;37.490;2023-02-02T07:14:01;98340.97;;;-0.28;69.05
69955;BME280;57279;55.912;37.490;2023-02-02T07:16:28;98340.19;;;-0.35;69.06
69955;BME280;57279;55.912;37.490;2023-02-02T07:18:53;98345.28;;;-0.34;69.28
69955;BME280;57279;55.912;37.490;2023-02-02T07:21:24;98345.06;;;-0.32;68.96
69955;BME280;57279;55.912;37.490;2023-02-02T07:23:50;98345.59;;;-0.24;68.90
69955;BME280;57279;55.912;37.490;2023-02-02T07:26:17;98341.94;;;-0.23;68.97
69955;BME280;57279;55.912;37.490;2023-02-02T07:28:43;98343.91;;;-0.11;68.61
69955;BME280;57279;55.912;37.490;2023-02-02T07:33:40;98351.16;;;0.00;68.31
69955;BME280;57279;55.912;37.490;2023-02-02T07:36:06;98353.44;;;-0.04;68.55
69955;BME280;57279;55.912;37.490;2023-02-02T07:38:32;98358.91;;;0.02;68.57
69955;BME280;57279;55.912;37.490;2023-02-02T07:41:00;98348.56;;;-0.07;68.38
69955;BME280;57279;55.912;37.490;2023-02-02T07:43:26;98350.81;;;-0.10;68.30
69955;BME280;57279;55.912;37.490;2023-02-02T07:45:52;98353.97;;;-0.20;69.06
69955;BME280;57279;55.912;37.490;2023-02-02T07:48:17;98354.88;;;-0.08;69.07
69955;BME280;57279;55.912;37.490;2023-02-02T07:50:43;98352.88;;;-0.12;68.75
69955;BME280;57279;55.912;37.490;2023-02-02T07:53:09;98351.50;;;-0.22;69.14
69955;BME280;57279;55.912;37.490;2023-02-02T07:55:34;98344.16;;;-0.20;69.40
69955;BME280;57279;55.912;37.490;2023-02-02T07:58:00;98347.19;;;-0.16;68.81
69955;BME280;57279;55.912;37.490;2023-02-02T08:00:26;98353.16;;;-0.21;68.82
69955;BME280;57279;55.912;37.490;2023-02-02T08:02:52;98346.22;;;-0.22;68.71
69955;BME280;57279;55.912;37.490;2023-02-02T08:05:18;98349.44;;;-0.20;68.81
69955;BME280;57279;55.912;37.490;2023-02-02T08:07:44;98349.56;;;-0.08;68.32
69955;BME280;57279;55.912;37.490;2023-02-02T08:10:10;98356.72;;;-0.08;68.59
69955;BME280;57279;55.912;37.490;2023-02-02T08:12:37;98347.97;;;-0.09;68.72
69955;BME280;57279;55.912;37.490;2023-02-02T08:15:03;98347.31;;;-0.04;68.98
69955;BME280;57279;55.912;37.490;2023-02-02T08:17:29;98347.47;;;0.01;68.70
69955;BME280;57279;55.912;37.490;2023-02-02T08:19:54;98344.44;;;-0.03;68.46
69955;BME280;57279;55.912;37.490;2023-02-02T08:22:20;98342.81;;;-0.04;68.69
69955;BME280;57279;55.912;37.490;2023-02-02T08:24:45;98347.06;;;0.04;68.79
69955;BME280;57279;55.912;37.490;2023-02-02T08:27:14;98349.22;;;0.14;68.57
69955;BME280;57279;55.912;37.490;2023-02-02T08:29:40;98348.94;;;0.22;67.91
69955;BME280;57279;55.912;37.490;2023-02-02T08:32:05;98343.34;;;0.30;67.52
69955;BME280;57279;55.912;37.490;2023-02-02T08:34:31;98342.53;;;0.30;67.25
69955;BME280;57279;55.912;37.490;2023-02-02T08:37:02;98345.91;;;0.18;67.33
69955;BME280;57279;55.912;37.490;2023-02-02T08:39:28;98350.19;;;0.19;67.94
69955;BME280;57279;55.912;37.490;2023-02-02T08:41:55;98357.19;;;0.14;67.71
69955;BME280;57279;55.912;37.490;2023-02-02T08:44:21;98360.03;;;0.12;67.49
69955;BME280;57279;55.912;37.490;2023-02-02T08:46:46;98358.84;;;0.08;67.90
69955;BME280;57279;55.912;37.490;2023-02-02T08:49:12;98354.91;;;0.17;67.72
69955;BME280;57279;55.912;37.490;2023-02-02T08:51:38;98358.28;;;0.25;67.55
69955;BME280;57279;55.912;37.490;2023-02-02T08:54:04;98354.66;;;0.19;67.19
69955;BME280;57279;55.912;37.490;2023-02-02T08:56:30;98354.06;;;0.17;67.41
69955;BME280;57279;55.912;37.490;2023-02-02T08:58:56;98351.88;;;0.14;68.10
69955;BME280;57279;55.912;37.490;2023-02-02T09:01:25;98362.09;;;0.10;67.59
69955;BME280;57279;55.912;37.490;2023-02-02T09:04:04;98354.84;;;0.24;67.52
69955;BME280;57279;55.912;37.490;2023-02-02T09:06:36;98356.69;;;0.24;67.39
69955;BME280;57279;55.912;37.490;2023-02-02T09:09:03;98346.94;;;0.17;67.76
69955;BME280;57279;55.912;37.490;2023-02-02T09:11:29;98354.63;;;0.26;67.64
69955;BME280;57279;55.912;37.490;2023-02-02T09:13:57;98351.75;;;0.27;66.91
69955;BME280;57279;55.912;37.490;2023-02-02T09:16:24;98351.53;;;0.29;67.20
69955;BME280;57279;55.912;37.490;2023-02-02T09:18:50;98346.75;;;0.37;66.92
69955;BME280;57279;55.912;37.490;2023-02-02T09:21:17;98343.88;;;0.39;67.05
69955;BME280;57279;55.912;37.490;2023-02-02T09:23:44;98352.28;;;0.36;66.86
69955;BME280;57279;55.912;37.490;2023-02-02T09:28:40;98348.97;;;0.41;66.36
69955;BME280;57279;55.912;37.490;2023-02-02T09:31:06;98355.81;;;0.30;66.12
69955;BME280;57279;55.912;37.490;2023-02-02T09:33:32;98344.22;;;0.24;66.11
69955;BME280;57279;55.912;37.490;2023-02-02T09:36:12;98345.97;;;0.12;65.67
69955;BME280;57279;55.912;37.490;2023-02-02T09:38:38;98351.97;;;0.01;66.23
69955;BME280;57279;55.912;37.490;2023-02-02T09:44:23;98342.69;;;-0.15;66.10
69955;BME280;57279;55.912;37.490;2023-02-02T09:55:20;98335.81;;;-0.23;65.81
69955;BME280;57279;55.912;37.490;2023-02-02T09:57:59;98343.13;;;-0.18;66.92
69955;BME280;57279;55.912;37.490;2023-02-02T10:00:33;98341.06;;;-0.16;66.76
69955;BME280;57279;55.912;37.490;2023-02-02T10:03:15;98340.91;;;-0.22;66.44
69955;BME280;57279;55.912;37.490;2023-02-02T10:05:53;98335.94;;;-0.11;66.02
69955;BME280;57279;55.912;37.490;2023-02-02T10:08:31;98334.03;;;-0.04;66.43
69955;BME280;57279;55.912;37.490;2023-02-02T10:10:59;98325.75;;;0.11;66.14
69955;BME280;57279;55.912;37.490;2023-02-02T10:13:32;98324.03;;;0.23;65.76
69955;BME280;57279;55.912;37.490;2023-02-02T10:16:09;98321.28;;;0.30;65.45
69955;BME280;57279;55.912;37.490;2023-02-02T10:19:05;98317.75;;;0.36;65.51
69955;BME280;57279;55.912;37.490;2023-02-02T10:22:18;98317.53;;;0.37;65.14
69955;BME280;57279;55.912;37.490;2023-02-02T10:24:42;98314.50;;;0.34;64.71
69955;BME280;57279;55.912;37.490;2023-02-02T10:27:14;98319.22;;;0.32;64.62
69955;BME280;57279;55.912;37.490;2023-02-02T10:29:47;98323.53;;;0.33;65.25
69955;BME280;57279;55.912;37.490;2023-02-02T10:32:34;98318.34;;;0.38;64.71
69955;BME280;57279;55.912;37.490;2023-02-02T10:35:42;98321.97;;;0.44;65.10
69955;BME280;57279;55.912;37.490;2023-02-02T10:40:43;98325.19;;;0.71;64.88
69955;BME280;57279;55.912;37.490;2023-02-02T10:44:05;98324.72;;;0.74;64.49
69955;BME280;57279;55.912;37.490;2023-02-02T10:46:36;98323.91;;;0.73;64.31
69955;BME280;57279;55.912;37.490;2023-02-02T10:49:30;98318.75;;;0.60;64.07
69955;BME280;57279;55.912;37.490;2023-02-02T10:51:59;98317.56;;;0.56;64.53
69955;BME280;57279;55.912;37.490;2023-02-02T10:57:15;98316.97;;;0.54;64.41
69955;BME280;57279;55.912;37.490;2023-02-02T11:02:34;98316.06;;;0.42;64.93
69955;BME280;57279;55.912;37.490;2023-02-02T11:05:00;98318.00;;;0.34;65.11
69955;BME280;57279;55.912;37.490;2023-02-02T11:07:44;98321.88;;;0.32;64.92
69955;BME280;57279;55.912;37.490;2023-02-02T11:10:09;98327.41;;;0.30;64.93
69955;BME280;57279;55.912;37.490;2023-02-02T11:12:44;98322.09;;;0.30;65.07
69955;BME280;57279;55.912;37.490;2023-02-02T11:15:28;98318.09;;;0.46;65.10
69955;BME280;57279;55.912;37.490;2023-02-02T11:17:54;98322.00;;;0.62;65.07
69955;BME280;57279;55.912;37.490;2023-02-02T11:20:23;98320.31;;;0.68;64.70
69955;BME280;57279;55.912;37.490;2023-02-02T11:22:59;98317.72;;;0.80;64.09
69955;BME280;57279;55.912;37.490;2023-02-02T11:25:33;98326.13;;;0.95;64.80
69955;BME280;57279;55.912;37.490;2023-02-02T11:28:09;98319.03;;;1.07;64.25
69955;BME280;57279;55.912;37.490;2023-02-02T11:30:39;98321.38;;;1.15;63.75
69955;BME280;57279;55.912;37.490;2023-02-02T11:36:23;98321.06;;;1.24;63.57
69955;BME280;57279;55.912;37.490;2023-02-02T11:38:41;98326.38;;;1.24;63.28
69955;BME280;57279;55.912;37.490;2023-02-02T11:41:08;98331.25;;;1.27;63.48
69955;BME280;57279;55.912;37.490;2023-02-02T11:43:51;98338.81;;;1.30;63.37
69955;BME280;57279;55.912;37.490;2023-02-02T11:46:22;98331.00;;;1.16;63.33
69955;BME280;57279;55.912;37.490;2023-02-02T11:49:14;98330.47;;;1.08;63.64
69955;BME280;57279;55.912;37.490;2023-02-02T11:51:41;98333.66;;;0.98;64.01
69955;BME280;57279;55.912;37.490;2023-02-02T11:54:27;98338.28;;;1.03;63.79
69955;BME280;57279;55.912;37.490;2023-02-02T11:56:56;98338.00;;;1.11;63.21
69955;BME280;57279;55.912;37.490;2023-02-02T11:59:38;98334.03;;;1.02;63.66
69955;BME280;57279;55.912;37.490;2023-02-02T12:02:27;98335.22;;;0.87;63.76
69955;BME280;57279;55.912;37.490;2023-02-02T12:05:11;98335.22;;;0.87;63.96
69955;BME280;57279;55.912;37.490;2023-02-02T12:07:43;98337.13;;;0.98;63.98
69955;BME280;57279;55.912;37.490;2023-02-02T12:10:22;98341.09;;;1.08;63.35
69955;BME280;57279;55.912;37.490;2023-02-02T12:18:55;98340.69;;;1.11;62.69
69955;BME280;57279;55.912;37.490;2023-02-02T12:21:38;98336.91;;;1.00;63.29
69955;BME280;57279;55.912;37.490;2023-02-02T12:24:30;98334.84;;;0.84;63.71
69955;BME280;57279;55.912;37.490;2023-02-02T12:40:58;98340.81;;;0.79;64.56
69955;BME280;57279;55.912;37.490;2023-02-02T13:00:32;98344.13;;;0.56;65.70
69955;BME280;57279;55.912;37.490;2023-02-02T13:09:08;98354.09;;;0.61;66.31
69955;BME280;57279;55.912;37.490;2023-02-02T13:11:47;98343.41;;;0.67;66.34
69955;BME280;57279;55.912;37.490;2023-02-02T13:14:28;98353.56;;;0.70;65.95
69955;BME280;57279;55.912;37.490;2023-02-02T13:16:59;98347.63;;;0.75;65.73
69955;BME280;57279;55.912;37.490;2023-02-02T13:22:01;98352.72;;;0.76;65.96
69955;BME280;57279;55.912;37.490;2023-02-02T13:24:31;98356.34;;;0.82;66.11
69955;BME280;57279;55.912;37.490;2023-02-02T13:27:00;98365.72;;;0.85;65.63
69955;BME280;57279;55.912;37.490;2023-02-02T13:29:33;98350.94;;;0.89;65.33
69955;BME280;57279;55.912;37.490;2023-02-02T13:32:30;98349.31;;;0.69;66.14
69955;BME280;57279;55.912;37.490;2023-02-02T13:40:38;98369.06;;;0.55;66.68
69955;BME280;57279;55.912;37.490;2023-02-02T13:51:35;98361.34;;;0.72;65.51
69955;BME280;57279;55.912;37.490;2023-02-02T13:56:43;98371.72;;;0.55;66.47
69955;BME280;57279;55.912;37.490;2023-02-02T14:02:28;98366.28;;;0.50;66.36
69955;BME280;57279;55.912;37.490;2023-02-02T14:04:57;98367.94;;;0.44;66.38
69955;BME280;57279;55.912;37.490;2023-02-02T14:07:27;98374.44;;;0.48;66.53
69955;BME280;57279;55.912;37.490;2023-02-02T14:09:56;98374.81;;;0.52;66.41
69955;BME280;57279;55.912;37.490;2023-02-02T14:12:31;98373.72;;;0.60;66.78
69955;BME280;57279;55.912;37.490;2023-02-02T14:14:57;98380.06;;;0.58;66.85
69955;BME280;57279;55.912;37.490;2023-02-02T14:19:58;98373.41;;;0.49;66.11
69955;BME280;57279;55.912;37.490;2023-02-02T14:22:51;98378.78;;;0.43;66.83
69955;BME280;57279;55.912;37.490;2023-02-02T14:30:27;98383.78;;;0.57;66.93
69955;BME280;57279;55.912;37.490;2023-02-02T14:32:53;98382.63;;;0.47;67.09
69955;BME280;57279;55.912;37.490;2023-02-02T14:41:08;98387.78;;;0.42;67.44
69955;BME280;57279;55.912;37.490;2023-02-02T14:43:46;98388.00;;;0.40;67.39
69955;BME280;57279;55.912;37.490;2023-02-02T14:46:36;98396.22;;;0.32;67.76
69955;BME280;57279;55.912;37.490;2023-02-02T14:51:30;98396.22;;;0.32;68.33
69955;BME280;57279;55.912;37.490;2023-02-02T14:54:00;98397.28;;;0.31;68.00
69955;BME280;57279;55.912;37.490;2023-02-02T14:59:31;98406.31;;;0.48;67.49
69955;BME280;57279;55.912;37.490;2023-02-02T15:02:19;98416.13;;;0.48;67.68
69955;BME280;57279;55.912;37.490;2023-02-02T15:04:47;98421.38;;;0.54;67.75
69955;BME280;57279;55.912;37.490;2023-02-02T15:09:52;98413.13;;;0.63;67.55
69955;BME280;57279;55.912;37.490;2023-02-02T15:12:39;98415.34;;;0.66;67.59
69955;BME280;57279;55.912;37.490;2023-02-02T15:15:15;98414.75;;;0.64;67.28
69955;BME280;57279;55.912;37.490;2023-02-02T15:18:03;98408.84;;;0.62;67.44
69955;BME280;57279;55.912;37.490;2023-02-02T15:20:40;98411.69;;;0.67;67.43
69955;BME280;57279;55.912;37.490;2023-02-02T15:23:39;98410.03;;;0.66;67.15
69955;BME280;57279;55.912;37.490;2023-02-02T15:31:46;98415.00;;;0.37;68.28
69955;BME280;57279;55.912;37.490;2023-02-02T15:36:50;98411.72;;;0.60;68.13
69955;BME280;57279;55.912;37.490;2023-02-02T15:39:29;98421.03;;;0.69;67.85
69955;BME280;57279;55.912;37.490;2023-02-02T15:41:57;98415.22;;;0.79;67.41
69955;BME280;57279;55.912;37.490;2023-02-02T15:44:41;98426.03;;;0.84;67.16
69955;BME280;57279;55.912;37.490;2023-02-02T15:47:11;98426.41;;;0.88;67.30
69955;BME280;57279;55.912;37.490;2023-02-02T15:49:39;98427.38;;;0.93;67.00
69955;BME280;57279;55.912;37.490;2023-02-02T15:52:15;98422.41;;;0.97;66.93
69955;BME280;57279;55.912;37.490;2023-02-02T15:54:53;98427.97;;;0.95;66.44
69955;BME280;57279;55.912;37.490;2023-02-02T15:57:34;98431.41;;;0.96;66.76
69955;BME280;57279;55.912;37.490;2023-02-02T16:00:36;98425.34;;;0.89;66.93
69955;BME280;57279;55.912;37.490;2023-02-02T16:03:13;98429.28;;;0.86;67.36
69955;BME280;57279;55.912;37.490;2023-02-02T16:05:46;98432.53;;;0.88;67.04
69955;BME280;57279;55.912;37.490;2023-02-02T16:08:17;98436.28;;;0.81;67.39
69955;BME280;57279;55.912;37.490;2023-02-02T16:10:45;98438.34;;;0.78;67.34
69955;BME280;57279;55.912;37.490;2023-02-02T16:13:26;98434.03;;;0.77;67.26
69955;BME280;57279;55.912;37.490;2023-02-02T16:15:55;98434.03;;;0.77;67.07
69955;BME280;57279;55.912;37.490;2023-02-02T16:18:21;98436.50;;;0.79;67.25
69955;BME280;57279;55.912;37.490;2023-02-02T16:20:47;98435.22;;;0.82;67.08
69955;BME280;57279;55.912;37.490;2023-02-02T16:23:15;98437.16;;;0.74;67.81
69955;BME280;57279;55.912;37.490;2023-02-02T16:25:50;98446.31;;;0.78;67.85
69955;BME280;57279;55.912;37.490;2023-02-02T16:28:18;98443.28;;;0.75;67.22
69955;BME280;57279;55.912;37.490;2023-02-02T16:30:46;98435.31;;;0.75;67.74
69955;BME280;57279;55.912;37.490;2023-02-02T16:33:35;98436.91;;;0.76;67.65
69955;BME280;57279;55.912;37.490;2023-02-02T16:36:03;98437.59;;;0.71;67.46
69955;BME280;57279;55.912;37.490;2023-02-02T16:38:40;98453.94;;;0.68;67.57
69955;BME280;57279;55.912;37.490;2023-02-02T16:43:32;98464.19;;;0.65;67.54
69955;BME280;57279;55.912;37.490;2023-02-02T16:46:04;98456.84;;;0.67;67.90
69955;BME280;57279;55.912;37.490;2023-02-02T16:48:39;98460.72;;;0.64;67.87
69955;BME280;57279;55.912;37.490;2023-02-02T16:56:19;98463.84;;;0.61;67.95
69955;BME280;57279;55.912;37.490;2023-02-02T16:58:46;98460.81;;;0.57;68.37
69955;BME280;57279;55.912;37.490;2023-02-02T17:01:12;98456.09;;;0.60;68.62
69955;BME280;57279;55.912;37.490;2023-02-02T17:03:44;98467.31;;;0.62;68.33
69955;BME280;57279;55.912;37.490;2023-02-02T17:06:10;98465.25;;;0.64;68.48
69955;BME280;57279;55.912;37.490;2023-02-02T17:08:38;98468.50;;;0.66;68.46
69955;BME280;57279;55.912;37.490;2023-02-02T17:13:41;98479.22;;;0.77;68.22
69955;BME280;57279;55.912;37.490;2023-02-02T17:16:11;98482.53;;;0.73;68.28
69955;BME280;57279;55.912;37.490;2023-02-02T17:18:37;98478.03;;;0.73;68.17
69955;BME280;57279;55.912;37.490;2023-02-02T17:21:04;98480.91;;;0.72;68.12
69955;BME280;57279;55.912;37.490;2023-02-02T17:23:33;98483.56;;;0.72;68.72
69955;BME280;57279;55.912;37.490;2023-02-02T17:26:07;98489.72;;;0.72;68.46
69955;BME280;57279;55.912;37.490;2023-02-02T17:28:34;98489.72;;;0.72;68.18
69955;BME280;57279;55.912;37.490;2023-02-02T17:31:06;98484.22;;;0.67;68.43
69955;BME280;57279;55.912;37.490;2023-02-02T17:33:33;98488.88;;;0.72;68.32
69955;BME280;57279;55.912;37.490;2023-02-02T17:36:00;98490.94;;;0.70;68.55
69955;BME280;57279;55.912;37.490;2023-02-02T17:38:26;98481.94;;;0.71;68.62
69955;BME280;57279;55.912;37.490;2023-02-02T17:40:53;98487.06;;;0.72;68.49
69955;BME280;57279;55.912;37.490;2023-02-02T17:43:19;98497.22;;;0.75;68.59
69955;BME280;57279;55.912;37.490;2023-02-02T17:45:45;98492.56;;;0.71;68.55
69955;BME280;57279;55.912;37.490;2023-02-02T17:48:12;98495.44;;;0.69;68.87
69955;BME280;57279;55.912;37.490;2023-02-02T17:50:39;98486.81;;;0.74;68.60
69955;BME280;57279;55.912;37.490;2023-02-02T17:53:13;98491.09;;;0.75;68.44
69955;BME280;57279;55.912;37.490;2023-02-02T17:55:40;98485.19;;;0.73;68.51
69955;BME280;57279;55.912;37.490;2023-02-02T17:58:08;98491.31;;;0.73;68.36
69955;BME280;57279;55.912;37.490;2023-02-02T18:00:35;98498.69;;;0.71;68.62
69955;BME280;57279;55.912;37.490;2023-02-02T18:03:23;98493.75;;;0.75;68.33
69955;BME280;57279;55.912;37.490;2023-02-02T18:05:51;98489.91;;;0.71;68.19
69955;BME280;57279;55.912;37.490;2023-02-02T18:08:17;98488.28;;;0.70;68.33
69955;BME280;57279;55.912;37.490;2023-02-02T18:10:43;98494.19;;;0.72;68.42
69955;BME280;57279;55.912;37.490;2023-02-02T18:13:16;98498.28;;;0.74;68.48
69955;BME280;57279;55.912;37.490;2023-02-02T18:15:43;98498.88;;;0.76;68.18
69955;BME280;57279;55.912;37.490;2023-02-02T18:18:10;98502.31;;;0.77;68.37
69955;BME280;57279;55.912;37.490;2023-02-02T18:20:46;98505.78;;;0.77;68.16
69955;BME280;57279;55.912;37.490;2023-02-02T18:23:13;98503.94;;;0.78;68.12
69955;BME280;57279;55.912;37.490;2023-02-02T18:25:39;98499.84;;;0.82;68.31
69955;BME280;57279;55.912;37.490;2023-02-02T18:28:06;98504.69;;;0.85;68.04
69955;BME280;57279;55.912;37.490;2023-02-02T18:30:32;98502.25;;;0.84;68.25
69955;BME280;57279;55.912;37.490;2023-02-02T18:32:58;98509.25;;;0.78;68.53
69955;BME280;57279;55.912;37.490;2023-02-02T18:35:24;98510.50;;;0.75;68.61
69955;BME280;57279;55.912;37.490;2023-02-02T18:37:51;98504.22;;;0.70;69.01
69955;BME280;57279;55.912;37.490;2023-02-02T18:40:17;98499.94;;;0.69;69.13
69955;BME280;57279;55.912;37.490;2023-02-02T18:42:42;98505.69;;;0.66;69.23
69955;BME280;57279;55.912;37.490;2023-02-02T18:45:09;98504.66;;;0.67;69.58
69955;BME280;57279;55.912;37.490;2023-02-02T18:47:34;98508.38;;;0.59;69.78
69955;BME280;57279;55.912;37.490;2023-02-02T18:50:00;98514.34;;;0.54;69.83
69955;BME280;57279;55.912;37.490;2023-02-02T18:52:31;98502.91;;;0.54;69.91
69955;BME280;57279;55.912;37.490;2023-02-02T18:54:57;98514.56;;;0.53;70.04
69955;BME280;57279;55.912;37.490;2023-02-02T18:57:23;98507.25;;;0.48;70.22
69955;BME280;57279;55.912;37.490;2023-02-02T18:59:49;98513.19;;;0.44;70.30
69955;BME280;57279;55.912;37.490;2023-02-02T19:02:16;98508.25;;;0.47;70.21
69955;BME280;57279;55.912;37.490;2023-02-02T19:04:43;98506.81;;;0.51;70.21
69955;BME280;57279;55.912;37.490;2023-02-02T19:07:31;98514.75;;;0.51;69.87
69955;BME280;57279;55.912;37.490;2023-02-02T19:10:17;98506.66;;;0.46;70.23
69955;BME280;57279;55.912;37.490;2023-02-02T19:15:32;98510.72;;;0.49;70.71
69955;BME280;57279;55.912;37.490;2023-02-02T19:18:01;98505.41;;;0.49;70.59
69955;BME280;57279;55.912;37.490;2023-02-02T19:20:29;98512.78;;;0.47;70.49
69955;BME280;57279;55.912;37.490;2023-02-02T19:23:08;98508.47;;;0.46;70.95
69955;BME280;57279;55.912;37.490;2023-02-02T19:25:34;98507.66;;;0.45;71.17
69955;BME280;57279;55.912;37.490;2023-02-02T19:30:49;98510.69;;;0.55;71.31
69955;BME280;57279;55.912;37.490;2023-02-02T19:33:16;98516.63;;;0.51;71.04
69955;BME280;57279;55.912;37.490;2023-02-02T19:35:47;98507.25;;;0.48;71.32
69955;BME280;57279;55.912;37.490;2023-02-02T19:38:15;98511.91;;;0.53;71.58
69955;BME280;57279;55.912;37.490;2023-02-02T19:40:42;98511.69;;;0.54;71.29
69955;BME280;57279;55.912;37.490;2023-02-02T19:45:38;98520.03;;;0.58;71.38
69955;BME280;57279;55.912;37.490;2023-02-02T19:48:25;98512.94;;;0.52;71.29
69955;BME280;57279;55.912;37.490;2023-02-02T19:50:52;98518.88;;;0.47;71.35
69955;BME280;57279;55.912;37.490;2023-02-02T19:53:29;98525.06;;;0.41;71.02
69955;BME280;57279;55.912;37.490;2023-02-02T19:56:00;98524.84;;;0.43;71.64
69955;BME280;57279;55.912;37.490;2023-02-02T19:58:33;98517.91;;;0.42;71.86
69955;BME280;57279;55.912;37.490;2023-02-02T20:01:09;98529.34;;;0.42;71.54
69955;BME280;57279;55.912;37.490;2023-02-02T20:03:40;98518.75;;;0.35;72.08
69955;BME280;57279;55.912;37.490;2023-02-02T20:06:12;98528.59;;;0.35;72.39
69955;BME280;57279;55.912;37.490;2023-02-02T20:08:42;98516.91;;;0.36;72.37